Cleveland, OH

1:11 PM EST on December 25, 2014 (GMT -0500)
Cleveland-Hopkins International | Change Station
CLOSE
Current Station
Airport
Location: Cleveland,
Elevation: 804 ft
Nearby Weather Stations

Elev 804 ft 41.40 °N, 81.85 °W | Updated 20 minutes ago

Overcast
Overcast
41 °F
Feels Like 33 °F
N
15
Wind Variable Wind from SW

Today
High -- | Low -- °F
--% Chance of Precip.
Yesterday
High -- | Low -- °F
Precip. -- in
7:51 AM 5:02 PM
Waxing Crescent, 18% visible
Pressure 30.03 in
Visibility 10.0 miles
Clouds Scattered Clouds 2900 ft
Overcast 4200 ft
Windchill 33 °F
Dew Point 31 °F
Humidity 67%
Rainfall 0.01 in
Snow Depth Not available.
UV 1 out of 12
Pollen .10 out of 12
Air Quality Not available.
Flu Activity Not available.
METAR KCLE 251751Z 23013KT 10SM SCT029 OVC042 05/M01 A3001 RMK AO2 PK WND 24027/1707 SLP167 T00501006 10050 20033 51021

More Conditions Fewer Conditions

Pressure 30.03 in
Visibility 10.0 miles
Clouds Scattered Clouds 2900 ft
Overcast 4200 ft
Windchill 33 °F
Dew Point 31 °F
Humidity 67%
Rainfall 0.01 in
Snow Depth Not available.
UV 1 out of 12
Pollen .10 out of 12
Air Quality Not available.
Flu Activity Not available.
METAR KCLE 251751Z 23013KT 10SM SCT029 OVC042 05/M01 A3001 RMK AO2 PK WND 24027/1707 SLP167 T00501006 10050 20033 51021

More Conditions Fewer Conditions

10-Day Weather Forecast

Almanac

Astronomy

Dec. 25, 2014 Rise Set
Actual Time
Civil Twilight
Nautical Twilight
Astronomical Twilight
Moon
Length of Visible Light
Length of Day
Tomorrow will be .
, % of the Moon is Illuminated

Today's Extremes

State Highs State Lows

Community

WunderPhotos

Upload Photos

1,780,353 photos uploaded!

WunderBlogs® & News

Nearby

Air Quality

  Air Quality AQ Index Pollutant
Not available.

Snow Depth

Station Depth Elevation

Earthquake Activity

City Distance Mag. Time & Date
Minimum magnitude displayed is 2.5.

Coastal Water Temperatures

Place Temperature

Nearby Weather Stations